Time;durP1;ratioP1;P1;durP2;ratioP2;P2;SDS_P1;SDS_P2;PMS_P1;PMS_P2;Temp;Humidity;BMP_temperature;BMP_pressure;BME280_temperature;BME280_humidity;BME280_pressure;Samples;Min_cycle;Max_cycle;Signal;HPM_P1;HPM_P2
2023/12/20 00:00:59;;;;;;;17.67;2.58;;;6.90;99.90;;;;;;5001398;28;20658;-65
2023/12/20 00:03:25;;;;;;;11.35;2.53;;;6.90;99.90;;;;;;5002346;28;20374;-64
2023/12/20 00:05:51;;;;;;;13.98;2.53;;;6.80;99.90;;;;;;5002939;28;20309;-64
2023/12/20 00:08:17;;;;;;;12.45;1.85;;;6.80;99.90;;;;;;5005001;28;20041;-64
2023/12/20 00:10:46;;;;;;;11.52;1.73;;;6.80;99.90;;;;;;5003755;28;20063;-64
2023/12/20 00:13:11;;;;;;;11.82;2.55;;;6.80;99.90;;;;;;5002242;28;20034;-64
2023/12/20 00:15:37;;;;;;;13.02;1.92;;;6.80;99.90;;;;;;5003020;28;20038;-63
2023/12/20 00:18:03;;;;;;;16.40;2.72;;;6.70;99.90;;;;;;4997934;28;20026;-65
2023/12/20 00:20:29;;;;;;;13.45;2.10;;;6.60;99.90;;;;;;5001874;28;20049;-64
2023/12/20 00:22:57;;;;;;;17.73;2.75;;;6.60;99.90;;;;;;4999980;28;20523;-64
2023/12/20 00:25:23;;;;;;;12.38;2.45;;;6.60;99.90;;;;;;4986328;28;20069;-64
2023/12/20 00:27:49;;;;;;;14.77;2.47;;;6.60;99.90;;;;;;5002927;28;20034;-65
2023/12/20 00:30:15;;;;;;;18.10;2.25;;;6.60;99.90;;;;;;4998272;28;20347;-64
2023/12/20 00:32:46;;;;;;;10.10;2.10;;;6.60;99.90;;;;;;5000510;28;20473;-64
2023/12/20 00:35:18;;;;;;;14.52;2.45;;;6.60;99.90;;;;;;5002384;28;20057;-65
2023/12/20 00:37:44;;;;;;;16.38;2.70;;;6.60;99.90;;;;;;4998533;28;20120;-64
2023/12/20 00:40:11;;;;;;;16.58;2.47;;;6.50;99.90;;;;;;5002607;28;20580;-64
2023/12/20 00:42:36;;;;;;;12.80;2.22;;;6.60;99.90;;;;;;4998968;28;20093;-63
2023/12/20 00:45:04;;;;;;;10.65;1.70;;;6.60;99.90;;;;;;5000646;28;20116;-63
2023/12/20 00:47:33;;;;;;;10.25;2.05;;;6.50;99.90;;;;;;5003406;28;20048;-64
2023/12/20 00:49:58;;;;;;;24.20;2.75;;;6.50;99.90;;;;;;4992356;28;20037;-64
2023/12/20 00:52:25;;;;;;;17.67;2.15;;;6.50;99.90;;;;;;5000324;28;20049;-65
2023/12/20 00:54:51;;;;;;;21.08;2.90;;;6.50;99.90;;;;;;5001309;28;20153;-64
2023/12/20 00:57:16;;;;;;;17.58;2.80;;;6.40;99.90;;;;;;4999928;28;20045;-64
2023/12/20 00:59:42;;;;;;;18.40;2.45;;;6.50;99.90;;;;;;5003181;28;20042;-64
2023/12/20 01:02:09;;;;;;;14.65;2.63;;;6.40;99.90;;;;;;5001876;28;20077;-64
2023/12/20 01:04:34;;;;;;;18.67;2.70;;;6.50;99.90;;;;;;5003980;28;20121;-64
2023/12/20 01:07:00;;;;;;;16.40;2.28;;;6.50;99.90;;;;;;5003178;28;21435;-64
2023/12/20 01:09:26;;;;;;;19.60;2.38;;;6.50;99.90;;;;;;5002678;28;20551;-65
2023/12/20 01:11:53;;;;;;;12.85;2.85;;;6.60;99.90;;;;;;5003285;28;20520;-63
2023/12/20 01:14:19;;;;;;;15.32;2.55;;;6.60;99.90;;;;;;4998750;28;20065;-63
2023/12/20 01:16:44;;;;;;;13.35;2.85;;;6.60;99.90;;;;;;5003796;28;20041;-64
2023/12/20 01:19:10;;;;;;;18.77;2.25;;;6.60;99.90;;;;;;5000987;28;20034;-65
2023/12/20 01:21:36;;;;;;;12.07;2.78;;;6.60;99.90;;;;;;4994469;28;20057;-64
2023/12/20 01:24:02;;;;;;;14.20;2.55;;;6.60;99.90;;;;;;5004104;28;20266;-64
2023/12/20 01:26:28;;;;;;;19.88;3.15;;;6.60;99.90;;;;;;4995738;28;20042;-64
2023/12/20 01:28:53;;;;;;;14.02;2.58;;;6.60;99.90;;;;;;5000503;28;20046;-64
2023/12/20 01:31:19;;;;;;;15.15;3.38;;;6.90;99.90;;;;;;4995801;28;20422;-65
2023/12/20 01:33:45;;;;;;;16.55;3.13;;;6.70;99.90;;;;;;4998226;28;20033;-65
2023/12/20 01:36:11;;;;;;;21.42;3.53;;;6.80;99.90;;;;;;5001755;28;20421;-64
2023/12/20 01:38:37;;;;;;;22.02;3.17;;;6.80;99.90;;;;;;4996022;28;20548;-64
2023/12/20 01:41:03;;;;;;;17.02;3.13;;;6.80;99.90;;;;;;4997426;28;20103;-65
2023/12/20 01:43:30;;;;;;;19.95;3.25;;;6.90;99.90;;;;;;5000971;28;20045;-64
2023/12/20 01:45:57;;;;;;;22.52;3.80;;;7.00;99.90;;;;;;5001619;28;20069;-63
2023/12/20 01:48:24;;;;;;;20.27;3.25;;;6.90;99.90;;;;;;4997616;28;20045;-65
2023/12/20 01:50:50;;;;;;;21.52;3.70;;;6.90;99.90;;;;;;4993001;28;20097;-64
2023/12/20 01:53:17;;;;;;;17.63;2.47;;;6.90;99.90;;;;;;5000859;28;20053;-64
2023/12/20 01:55:43;;;;;;;17.77;2.40;;;6.80;99.90;;;;;;5001367;28;20042;-64
2023/12/20 01:58:10;;;;;;;16.52;2.53;;;6.90;99.90;;;;;;5000579;28;20144;-63
2023/12/20 02:00:37;;;;;;;13.48;3.22;;;6.80;99.90;;;;;;4995892;28;20050;-65
2023/12/20 02:03:03;;;;;;;15.80;3.08;;;6.90;99.90;;;;;;4994336;28;20041;-64
2023/12/20 02:05:35;;;;;;;13.27;3.00;;;6.90;99.90;;;;;;4996983;28;20049;-63
2023/12/20 02:08:01;;;;;;;14.90;2.20;;;6.90;99.90;;;;;;4997963;28;20048;-64
2023/12/20 02:10:27;;;;;;;13.20;2.28;;;6.90;99.90;;;;;;4996626;28;20038;-64
2023/12/20 02:12:53;;;;;;;14.35;3.13;;;6.90;99.90;;;;;;5003020;28;20224;-64
2023/12/20 02:15:19;;;;;;;13.10;3.03;;;6.80;99.90;;;;;;5002069;28;20030;-64
2023/12/20 02:17:47;;;;;;;8.75;2.17;;;6.80;99.90;;;;;;5002465;28;20042;-64
2023/12/20 02:20:13;;;;;;;12.95;2.08;;;6.80;99.90;;;;;;5000855;28;20133;-64
2023/12/20 02:22:38;;;;;;;14.60;2.45;;;6.90;99.90;;;;;;4997225;28;20529;-65
2023/12/20 02:25:04;;;;;;;16.83;2.78;;;6.90;99.90;;;;;;4995773;28;20042;-65
2023/12/20 02:27:30;;;;;;;21.27;3.20;;;6.90;99.90;;;;;;5002900;28;20149;-64
2023/12/20 02:29:56;;;;;;;19.60;3.83;;;6.70;99.90;;;;;;4999675;28;20034;-64
2023/12/20 02:32:25;;;;;;;21.45;3.42;;;6.80;99.90;;;;;;5000043;28;20124;-63
2023/12/20 02:34:51;;;;;;;;;;;6.90;99.90;;;;;;4998040;28;20034;-64
2023/12/20 02:37:17;;;;;;;22.13;3.65;;;6.90;99.90;;;;;;4996850;28;19984;-64
2023/12/20 02:39:43;;;;;;;21.98;3.35;;;7.00;99.90;;;;;;5000916;28;20414;-64
2023/12/20 02:42:09;;;;;;;19.83;3.42;;;7.00;99.90;;;;;;4998813;28;20501;-64
2023/12/20 02:44:34;;;;;;;23.00;3.97;;;7.00;99.90;;;;;;5001349;28;20073;-64
2023/12/20 02:47:00;;;;;;;29.98;4.72;;;7.00;99.90;;;;;;4995781;28;20042;-65
2023/12/20 02:49:26;;;;;;;22.88;4.78;;;7.10;99.90;;;;;;4996586;28;20487;-64
2023/12/20 02:51:52;;;;;;;25.05;3.63;;;7.10;99.90;;;;;;4980779;28;20061;-63
2023/12/20 02:54:17;;;;;;;24.92;3.42;;;7.10;99.90;;;;;;4996793;28;20042;-64
2023/12/20 02:56:43;;;;;;;24.65;3.63;;;7.10;99.90;;;;;;4999004;28;20337;-64
2023/12/20 02:59:09;;;;;;;20.40;3.83;;;7.20;99.90;;;;;;5002275;28;20416;-64
2023/12/20 03:01:35;;;;;;;22.92;3.83;;;7.20;99.90;;;;;;4995986;28;20042;-65
2023/12/20 03:04:01;;;;;;;33.65;4.57;;;7.20;99.90;;;;;;5001894;28;20042;-64
2023/12/20 03:06:27;;;;;;;20.95;4.35;;;7.20;99.90;;;;;;4980976;28;20050;-63
2023/12/20 03:08:53;;;;;;;29.95;4.40;;;7.20;99.90;;;;;;4997795;28;20043;-64
2023/12/20 03:11:19;;;;;;;28.02;4.63;;;7.10;99.90;;;;;;4998127;28;20041;-64
2023/12/20 03:13:44;;;;;;;38.30;5.60;;;7.30;99.90;;;;;;4998678;28;20046;-64
2023/12/20 03:16:11;;;;;;;32.08;4.70;;;7.30;99.90;;;;;;5000160;28;20045;-66
2023/12/20 03:18:37;;;;;;;30.23;5.20;;;7.30;99.90;;;;;;4999602;28;20061;-64
2023/12/20 03:21:06;;;;;;;33.70;4.93;;;7.30;99.90;;;;;;5001256;28;20088;-64
2023/12/20 03:23:34;;;;;;;34.15;4.15;;;7.30;99.90;;;;;;4998445;28;20493;-64
2023/12/20 03:26:00;;;;;;;29.73;4.68;;;7.30;99.90;;;;;;4995798;28;20339;-64
2023/12/20 03:28:30;;;;;;;27.83;4.22;;;7.30;99.90;;;;;;5000563;28;20060;-64
2023/12/20 03:30:55;;;;;;;27.38;5.00;;;7.30;99.90;;;;;;4999832;28;20074;-64
2023/12/20 03:33:21;;;;;;;22.17;3.42;;;7.30;99.90;;;;;;4999612;28;20834;-63
2023/12/20 03:35:47;;;;;;;20.80;4.25;;;7.20;99.90;;;;;;4996441;28;20049;-64
2023/12/20 03:38:12;;;;;;;28.00;4.05;;;7.20;99.90;;;;;;5000779;28;20040;-60
2023/12/20 03:40:39;;;;;;;26.85;4.78;;;7.20;99.90;;;;;;4992250;28;20408;-63
2023/12/20 03:43:04;;;;;;;18.42;4.28;;;7.20;99.90;;;;;;4999043;28;20046;-64
2023/12/20 03:45:30;;;;;;;20.92;4.28;;;7.20;99.90;;;;;;5001957;28;20049;-63
2023/12/20 03:47:56;;;;;;;29.55;4.28;;;7.30;99.90;;;;;;4995892;28;20583;-64
2023/12/20 03:50:28;;;;;;;29.20;4.70;;;7.30;99.90;;;;;;4999818;28;20042;-64
2023/12/20 03:52:54;;;;;;;26.67;4.82;;;7.30;99.90;;;;;;5001070;28;20496;-64
2023/12/20 03:55:20;;;;;;;28.65;5.43;;;7.20;99.90;;;;;;5004282;28;20365;-64
2023/12/20 03:57:46;;;;;;;32.88;5.32;;;7.20;99.90;;;;;;5005808;28;20050;-64
2023/12/20 04:00:12;;;;;;;37.67;5.28;;;7.20;99.90;;;;;;4999099;28;20418;-64
2023/12/20 04:02:41;;;;;;;38.05;6.40;;;7.30;99.90;;;;;;5004691;28;20504;-64
2023/12/20 04:05:09;;;;;;;30.23;4.47;;;7.30;99.90;;;;;;5000445;28;20048;-64
2023/12/20 04:07:35;;;;;;;35.00;5.10;;;7.30;99.90;;;;;;5002701;28;20076;-64
2023/12/20 04:10:01;;;;;;;22.60;4.30;;;7.30;99.90;;;;;;4999698;28;20034;-65
2023/12/20 04:12:28;;;;;;;38.60;5.68;;;7.30;99.90;;;;;;5004462;28;20506;-64
2023/12/20 04:14:54;;;;;;;30.73;4.20;;;7.40;99.90;;;;;;5005385;28;20045;-64
2023/12/20 04:17:22;;;;;;;30.73;5.32;;;7.40;99.90;;;;;;4994284;28;20038;-64
2023/12/20 04:19:51;;;;;;;27.08;4.78;;;7.40;99.90;;;;;;5003851;28;20045;-63
2023/12/20 04:22:18;;;;;;;25.20;3.67;;;7.40;99.90;;;;;;5003941;28;20048;-64
2023/12/20 04:24:44;;;;;;;23.58;4.55;;;7.40;99.90;;;;;;5004073;28;20045;-63
2023/12/20 04:27:10;;;;;;;23.70;5.15;;;7.40;99.90;;;;;;5004412;28;20100;-64
2023/12/20 04:29:36;;;;;;;22.52;4.55;;;7.40;99.90;;;;;;4996060;28;20044;-64
2023/12/20 04:32:02;;;;;;;33.13;4.47;;;7.40;99.90;;;;;;5003455;28;20070;-64
2023/12/20 04:34:28;;;;;;;29.92;4.57;;;7.40;99.90;;;;;;4999047;28;20041;-64
2023/12/20 04:36:53;;;;;;;26.25;4.07;;;7.40;99.90;;;;;;5002465;28;20116;-64
2023/12/20 04:39:19;;;;;;;25.63;5.25;;;7.50;99.90;;;;;;5003898;28;20042;-63
2023/12/20 04:41:47;;;;;;;19.58;4.72;;;7.50;99.90;;;;;;5000601;28;20109;-64
2023/12/20 04:44:13;;;;;;;32.75;4.90;;;7.50;99.90;;;;;;5004615;28;20440;-63
2023/12/20 04:46:39;;;;;;;25.10;3.97;;;7.50;99.90;;;;;;4998825;28;20081;-64
2023/12/20 04:49:05;;;;;;;22.83;4.70;;;7.50;99.90;;;;;;5000063;28;20046;-63
2023/12/20 04:51:34;;;;;;;26.27;4.03;;;7.50;99.90;;;;;;5000762;28;20140;-63
2023/12/20 04:54:00;;;;;;;32.20;4.60;;;7.60;99.90;;;;;;4989744;28;20377;-63
2023/12/20 04:56:26;;;;;;;28.73;5.15;;;7.60;99.90;;;;;;5000051;28;20269;-62
2023/12/20 04:58:52;;;;;;;28.83;5.30;;;7.60;99.90;;;;;;5000006;28;20042;-63
2023/12/20 05:01:18;;;;;;;30.52;4.45;;;7.70;99.90;;;;;;5001659;28;20038;-63
2023/12/20 05:03:43;;;;;;;29.23;5.88;;;7.80;99.90;;;;;;5001835;28;20107;-63
2023/12/20 05:06:10;;;;;;;28.45;6.15;;;7.80;99.90;;;;;;4996951;28;20041;-63
2023/12/20 05:08:36;;;;;;;27.13;4.00;;;7.90;99.90;;;;;;4999326;28;20048;-63
2023/12/20 05:11:02;;;;;;;34.95;5.10;;;7.90;99.90;;;;;;5003513;28;20041;-63
2023/12/20 05:13:28;;;;;;;31.08;4.90;;;7.90;99.90;;;;;;5001803;28;20041;-63
2023/12/20 05:15:53;;;;;;;29.55;5.38;;;7.90;99.90;;;;;;5000315;28;20049;-63
2023/12/20 05:18:21;;;;;;;28.10;3.97;;;7.90;99.90;;;;;;4997089;28;20030;-62
2023/12/20 05:20:46;;;;;;;30.10;5.30;;;7.90;99.90;;;;;;5003872;28;20775;-63
2023/12/20 05:23:13;;;;;;;32.17;5.63;;;7.90;99.90;;;;;;5001761;28;20042;-63
2023/12/20 05:25:39;;;;;;;29.90;5.55;;;7.90;99.90;;;;;;4997669;28;20075;-63
2023/12/20 05:28:05;;;;;;;31.70;4.97;;;7.90;99.90;;;;;;4999709;28;20049;-62
2023/12/20 05:30:31;;;;;;;32.08;4.85;;;8.00;99.90;;;;;;4996668;28;20054;-63
2023/12/20 05:32:56;;;;;;;22.17;4.07;;;8.00;99.90;;;;;;4997908;28;20129;-63
2023/12/20 05:35:23;;;;;;;37.97;6.90;;;8.00;99.90;;;;;;4997980;28;20444;-63
2023/12/20 05:37:49;;;;;;;35.83;5.00;;;8.00;99.90;;;;;;5001133;28;20429;-63
2023/12/20 05:40:15;;;;;;;21.95;4.20;;;8.00;99.90;;;;;;4996025;28;20042;-63
2023/12/20 05:42:41;;;;;;;29.90;6.18;;;8.00;99.90;;;;;;5001891;28;20053;-63
2023/12/20 05:45:07;;;;;;;31.77;4.78;;;8.00;99.90;;;;;;5001070;28;20126;-63
2023/12/20 05:47:32;;;;;;;32.90;5.90;;;8.00;99.90;;;;;;5001209;28;20038;-65
2023/12/20 05:49:58;;;;;;;24.20;4.10;;;8.00;99.90;;;;;;4996195;28;20133;-63
2023/12/20 05:52:24;;;;;;;29.42;5.38;;;8.00;99.90;;;;;;4999571;28;20140;-63
2023/12/20 05:54:50;;;;;;;27.98;5.13;;;8.00;99.90;;;;;;4994422;28;20046;-62
2023/12/20 05:57:16;;;;;;;28.90;4.93;;;8.00;99.90;;;;;;4998533;28;20180;-63
2023/12/20 05:59:41;;;;;;;24.02;4.53;;;8.10;99.90;;;;;;4993619;28;20576;-62
2023/12/20 06:02:07;;;;;;;23.17;4.75;;;8.10;99.90;;;;;;4973481;28;20046;-63
2023/12/20 06:04:33;;;;;;;31.67;5.95;;;8.10;99.90;;;;;;4999948;28;20052;-62
2023/12/20 06:06:59;;;;;;;34.53;5.60;;;8.00;99.90;;;;;;4999596;28;20053;-62
2023/12/20 06:09:26;;;;;;;32.75;5.47;;;8.00;99.90;;;;;;5000845;28;20144;-62
2023/12/20 06:11:52;;;;;;;25.73;6.10;;;8.00;99.90;;;;;;4995118;28;20179;-63
2023/12/20 06:14:18;;;;;;;37.97;6.00;;;8.10;99.90;;;;;;4996728;28;20033;-62
2023/12/20 06:16:45;;;;;;;32.75;5.82;;;8.10;99.90;;;;;;4997314;28;20041;-63
2023/12/20 06:19:10;;;;;;;31.95;4.82;;;8.10;99.90;;;;;;5001990;28;20460;-63
2023/12/20 06:21:36;;;;;;;34.10;4.93;;;8.10;99.90;;;;;;4995954;28;20037;-63
2023/12/20 06:24:02;;;;;;;26.67;4.45;;;8.10;99.90;;;;;;4984206;28;20041;-64
2023/12/20 06:26:28;;;;;;;26.48;4.82;;;8.20;99.90;;;;;;4999874;28;20057;-63
2023/12/20 06:28:53;;;;;;;22.17;4.45;;;8.20;99.90;;;;;;4998550;28;20042;-62
2023/12/20 06:31:19;;;;;;;31.35;5.57;;;8.20;99.90;;;;;;4999750;28;20049;-62
2023/12/20 06:33:45;;;;;;;31.58;5.75;;;8.20;99.90;;;;;;4996100;28;20092;-63
2023/12/20 06:36:14;;;;;;;29.63;4.72;;;8.30;99.90;;;;;;4998621;28;20432;-63
2023/12/20 06:38:39;;;;;;;;;;;8.30;99.90;;;;;;4996888;28;20069;-64
2023/12/20 06:41:08;;;;;;;39.58;4.80;;;8.30;99.90;;;;;;4998637;28;20011;-63
2023/12/20 06:43:34;;;;;;;32.83;4.53;;;8.40;99.90;;;;;;4999909;28;20113;-63
2023/12/20 06:46:03;;;;;;;23.95;4.13;;;8.40;99.90;;;;;;4995938;28;21255;-63
2023/12/20 06:48:28;;;;;;;24.60;5.20;;;8.40;99.90;;;;;;4990142;28;20335;-62
2023/12/20 06:50:54;;;;;;;37.50;5.80;;;8.20;99.90;;;;;;4994418;28;20322;-63
2023/12/20 06:53:20;;;;;;;29.33;4.43;;;8.40;99.90;;;;;;4991954;28;20644;-63
2023/12/20 06:55:46;;;;;;;27.75;5.75;;;8.50;99.90;;;;;;4989867;28;20108;-63
2023/12/20 06:58:11;;;;;;;24.02;4.72;;;8.40;99.90;;;;;;4989108;28;20036;-63
2023/12/20 07:00:38;;;;;;;38.90;5.32;;;8.40;99.90;;;;;;4989965;28;20041;-63
2023/12/20 07:03:03;;;;;;;33.05;6.30;;;8.40;99.90;;;;;;4989252;28;20064;-63
2023/12/20 07:05:29;;;;;;;28.70;4.85;;;8.50;99.90;;;;;;4989306;28;20404;-62
2023/12/20 07:07:55;;;;;;;30.35;4.95;;;8.40;99.90;;;;;;4988474;28;20140;-62
2023/12/20 07:10:21;;;;;;;31.10;6.18;;;8.50;99.90;;;;;;4990809;28;20131;-63
2023/12/20 07:12:48;;;;;;;34.22;5.47;;;8.50;99.90;;;;;;4998174;28;20468;-61
2023/12/20 07:15:14;;;;;;;34.78;4.80;;;8.50;99.90;;;;;;4998725;28;20404;-63
2023/12/20 07:17:40;;;;;;;30.35;4.70;;;8.50;99.90;;;;;;4998521;28;20042;-62
2023/12/20 07:20:09;;;;;;;26.08;5.45;;;8.60;99.90;;;;;;4997795;28;20568;-63
2023/12/20 07:22:35;;;;;;;38.60;6.07;;;8.50;99.90;;;;;;4998773;28;20049;-62
2023/12/20 07:25:01;;;;;;;24.67;4.53;;;8.50;99.90;;;;;;4996943;28;20042;-63
2023/12/20 07:27:27;;;;;;;30.38;4.95;;;8.50;99.90;;;;;;5001776;28;20044;-63
2023/12/20 07:29:53;;;;;;;29.67;5.65;;;8.50;99.90;;;;;;5000409;28;20065;-63
2023/12/20 07:32:19;;;;;;;24.92;4.97;;;8.50;99.90;;;;;;4993417;28;20124;-63
2023/12/20 07:34:45;;;;;;;28.15;4.93;;;8.60;99.90;;;;;;5002384;28;20129;-63
2023/12/20 07:37:11;;;;;;;34.40;5.03;;;8.60;99.90;;;;;;5001103;28;20042;-63
2023/12/20 07:39:40;;;;;;;22.95;4.72;;;8.60;99.90;;;;;;5001915;28;20050;-62
2023/12/20 07:42:07;;;;;;;;;;;8.60;99.90;;;;;;5002536;28;20097;-62
2023/12/20 07:44:32;;;;;;;26.38;4.25;;;8.60;99.90;;;;;;4993993;28;20432;-62
2023/12/20 07:46:58;;;;;;;29.50;4.72;;;8.60;99.90;;;;;;4998378;28;20053;-62
2023/12/20 07:49:24;;;;;;;19.77;3.85;;;8.60;99.90;;;;;;5000200;28;20061;-63
2023/12/20 07:51:50;;;;;;;37.92;5.63;;;8.60;99.90;;;;;;4996555;28;20042;-62
2023/12/20 07:54:16;;;;;;;25.38;4.43;;;8.60;99.90;;;;;;4995316;28;20033;-62
2023/12/20 07:56:42;;;;;;;25.45;5.65;;;8.60;99.90;;;;;;5003353;28;20041;-62
2023/12/20 07:59:07;;;;;;;26.35;4.78;;;8.60;99.90;;;;;;4999214;28;20111;-62
2023/12/20 08:01:33;;;;;;;28.55;4.68;;;8.60;99.90;;;;;;4998592;28;20066;-63
2023/12/20 08:03:59;;;;;;;26.58;5.22;;;8.60;99.90;;;;;;5001202;28;20042;-62
2023/12/20 08:06:24;;;;;;;24.80;6.22;;;8.60;99.90;;;;;;5005424;28;20057;-62
2023/12/20 08:08:50;;;;;;;39.47;6.40;;;8.60;99.90;;;;;;5000361;28;20603;-62
2023/12/20 08:11:16;;;;;;;30.02;5.30;;;8.60;99.90;;;;;;5005048;28;20335;-62
2023/12/20 08:13:42;;;;;;;31.67;4.88;;;8.60;99.90;;;;;;5004557;28;20133;-62
2023/12/20 08:16:08;;;;;;;32.10;4.70;;;8.70;99.90;;;;;;4997846;28;20085;-62
2023/12/20 08:18:33;;;;;;;25.40;3.88;;;8.70;99.90;;;;;;5002050;28;20042;-62
2023/12/20 08:21:01;;;;;;;27.23;4.97;;;8.60;99.90;;;;;;5001112;28;20046;-62
2023/12/20 08:23:27;;;;;;;27.25;4.93;;;8.70;99.90;;;;;;5001969;28;20072;-62
2023/12/20 08:25:52;;;;;;;28.30;5.43;;;8.60;99.90;;;;;;4995029;28;20042;-61
2023/12/20 08:28:18;;;;;;;22.70;4.93;;;8.60;99.90;;;;;;4996529;28;20524;-62
2023/12/20 08:30:44;;;;;;;20.00;4.07;;;8.60;99.90;;;;;;5002462;28;20045;-63
2023/12/20 08:33:12;;;;;;;23.13;3.85;;;8.70;99.90;;;;;;5000915;28;20042;-61
2023/12/20 08:35:41;;;;;;;29.75;4.82;;;8.70;99.90;;;;;;4995833;28;20089;-62
2023/12/20 08:38:07;;;;;;;19.42;3.97;;;8.70;99.90;;;;;;4993559;28;20045;-62
2023/12/20 08:40:33;;;;;;;18.00;3.58;;;8.60;99.90;;;;;;4997491;28;20112;-62
2023/12/20 08:42:58;;;;;;;19.42;4.10;;;8.60;99.90;;;;;;5000577;28;20066;-62
2023/12/20 08:45:24;;;;;;;18.20;3.47;;;8.60;99.90;;;;;;5001655;28;20436;-62
2023/12/20 08:47:50;;;;;;;16.13;2.65;;;8.70;99.90;;;;;;5000774;28;20030;-62
2023/12/20 08:50:16;;;;;;;13.88;3.58;;;8.40;99.90;;;;;;4980814;28;20037;-62
2023/12/20 08:52:42;;;;;;;16.10;4.35;;;8.10;99.90;;;;;;5004549;28;20034;-62
2023/12/20 08:55:10;;;;;;;14.77;3.20;;;7.80;99.90;;;;;;4982794;28;20438;-62
2023/12/20 08:57:36;;;;;;;9.57;1.67;;;7.70;99.90;;;;;;4999449;28;20033;-62
2023/12/20 09:00:03;;;;;;;5.80;1.10;;;7.40;99.90;;;;;;5002325;28;20555;-62
2023/12/20 09:02:28;;;;;;;9.65;1.50;;;7.20;99.90;;;;;;5002111;28;20053;-61
2023/12/20 09:04:55;;;;;;;11.95;1.95;;;7.10;99.90;;;;;;5003936;28;20045;-61
2023/12/20 09:07:25;;;;;;;12.38;2.60;;;7.10;99.90;;;;;;5001465;28;20037;-62
2023/12/20 09:09:51;;;;;;;16.05;3.78;;;7.10;99.90;;;;;;4996044;28;20354;-62
2023/12/20 09:12:20;;;;;;;18.90;4.60;;;7.00;99.90;;;;;;4996535;28;20468;-62
2023/12/20 09:14:47;;;;;;;15.98;2.50;;;7.00;99.90;;;;;;4997487;28;20332;-62
2023/12/20 09:17:13;;;;;;;15.13;2.13;;;7.00;99.90;;;;;;4995277;28;20553;-62
2023/12/20 09:19:39;;;;;;;11.10;1.70;;;7.00;99.90;;;;;;5004329;28;20092;-62
2023/12/20 09:22:06;;;;;;;13.20;2.53;;;7.00;99.90;;;;;;4994434;28;20046;-63
2023/12/20 09:24:31;;;;;;;9.98;1.70;;;7.00;99.90;;;;;;4996807;28;20050;-63
2023/12/20 09:26:57;;;;;;;11.00;2.40;;;6.90;99.90;;;;;;4994247;28;20049;-61
2023/12/20 09:29:24;;;;;;;10.88;1.83;;;6.90;99.90;;;;;;5001344;28;20136;-62
2023/12/20 09:31:50;;;;;;;4.45;0.93;;;6.80;99.90;;;;;;5003238;28;20049;-62
2023/12/20 09:34:19;;;;;;;7.45;1.10;;;6.80;99.90;;;;;;5001941;28;20283;-62
2023/12/20 09:36:46;;;;;;;7.88;1.33;;;6.70;99.90;;;;;;4998686;28;20034;-63
2023/12/20 09:39:20;;;;;;;11.70;1.60;;;6.70;99.90;;;;;;5002265;28;20045;-63
2023/12/20 09:42:09;;;;;;;5.57;1.05;;;6.70;99.90;;;;;;4999647;28;20096;-62
2023/12/20 09:44:36;;;;;;;5.70;1.40;;;6.70;99.90;;;;;;5000086;28;20050;-62
2023/12/20 09:47:05;;;;;;;6.95;1.58;;;6.70;99.90;;;;;;4999796;28;20066;-62
2023/12/20 09:49:30;;;;;;;;;;;6.70;99.90;;;;;;4995896;28;20560;-63
2023/12/20 09:51:56;;;;;;;10.70;1.50;;;6.80;99.90;;;;;;4992990;28;19931;-62
2023/12/20 09:54:23;;;;;;;7.57;1.40;;;6.90;99.90;;;;;;5000042;28;20120;-62
2023/12/20 09:56:50;;;;;;;10.98;1.70;;;6.90;99.90;;;;;;4996920;28;20648;-62
2023/12/20 09:59:16;;;;;;;9.80;1.85;;;6.90;99.90;;;;;;5001006;28;20038;-62
2023/12/20 10:01:42;;;;;;;6.40;0.95;;;6.90;99.90;;;;;;5001779;28;20095;-62
2023/12/20 10:04:12;;;;;;;8.90;1.63;;;6.90;99.90;;;;;;5000987;28;20053;-63
2023/12/20 10:06:44;;;;;;;11.68;1.85;;;6.90;99.90;;;;;;4998563;28;20042;-62
2023/12/20 10:09:11;;;;;;;9.88;1.63;;;6.90;99.90;;;;;;4992348;28;20050;-63
2023/12/20 10:11:38;;;;;;;12.65;1.60;;;7.00;99.90;;;;;;4998936;28;20035;-64
2023/12/20 10:14:06;;;;;;;8.02;1.67;;;7.10;99.90;;;;;;5003315;28;20072;-63
2023/12/20 10:16:32;;;;;;;11.25;1.65;;;7.10;99.90;;;;;;4999370;28;20557;-63
2023/12/20 10:18:59;;;;;;;10.75;1.80;;;7.10;99.90;;;;;;4993954;28;20555;-63
2023/12/20 10:21:26;;;;;;;10.65;1.73;;;7.20;99.90;;;;;;4984520;28;20084;-62
2023/12/20 10:23:55;;;;;;;11.27;1.80;;;7.20;99.90;;;;;;4990573;28;20041;-62
2023/12/20 10:26:32;;;;;;;12.82;2.13;;;7.20;99.90;;;;;;5002252;28;20049;-62
2023/12/20 10:29:00;;;;;;;11.23;1.30;;;7.30;99.90;;;;;;5001240;28;20143;-62
2023/12/20 10:31:30;;;;;;;15.52;2.58;;;7.40;99.90;;;;;;4994256;28;20462;-63
2023/12/20 10:34:01;;;;;;;13.27;2.65;;;7.40;99.90;;;;;;4995716;28;20050;-62
2023/12/20 10:36:31;;;;;;;16.83;2.42;;;7.40;99.90;;;;;;4996381;28;20061;-62
2023/12/20 10:38:58;;;;;;;18.83;2.90;;;7.50;99.90;;;;;;4999915;28;20042;-63
2023/12/20 10:41:35;;;;;;;15.40;2.85;;;7.50;99.90;;;;;;4983562;28;20556;-62
2023/12/20 10:44:05;;;;;;;19.48;2.78;;;7.50;99.90;;;;;;5000397;28;20050;-62
2023/12/20 10:46:32;;;;;;;13.02;2.28;;;7.50;99.90;;;;;;4999662;28;20087;-62
2023/12/20 10:48:59;;;;;;;8.85;1.63;;;7.60;99.90;;;;;;5000773;28;20080;-63
2023/12/20 10:51:26;;;;;;;8.45;1.90;;;7.50;99.90;;;;;;5000566;28;20517;-63
2023/12/20 10:53:53;;;;;;;14.48;2.22;;;7.60;99.90;;;;;;4990827;28;20038;-62
2023/12/20 10:56:20;;;;;;;14.40;2.55;;;7.70;99.90;;;;;;4997146;28;20049;-62
2023/12/20 10:58:49;;;;;;;13.40;2.75;;;7.60;99.90;;;;;;4997217;28;20466;-62
2023/12/20 11:01:16;;;;;;;17.90;3.00;;;7.70;99.90;;;;;;5000508;28;20045;-63
2023/12/20 11:03:49;;;;;;;15.40;2.55;;;7.60;99.90;;;;;;4979462;28;20085;-62
2023/12/20 11:06:40;;;;;;;14.15;2.35;;;7.50;99.90;;;;;;4995481;28;20042;-62
2023/12/20 11:09:12;;;;;;;10.75;2.33;;;7.60;99.90;;;;;;5001527;28;20093;-62
2023/12/20 11:12:01;;;;;;;14.73;2.72;;;7.60;99.90;;;;;;4994369;28;20280;-62
2023/12/20 11:14:52;;;;;;;27.15;3.05;;;7.60;99.90;;;;;;4998640;28;20041;-62
2023/12/20 11:17:18;;;;;;;;;;;7.70;99.90;;;;;;4980384;28;20445;-62
2023/12/20 11:19:52;;;;;;;20.88;2.85;;;7.70;99.90;;;;;;4992411;28;19928;-63
2023/12/20 11:22:25;;;;;;;17.27;2.22;;;7.80;99.90;;;;;;4992545;28;20089;-62
2023/12/20 11:24:52;;;;;;;13.35;2.92;;;7.80;99.90;;;;;;4998246;28;20038;-62
2023/12/20 11:27:19;;;;;;;21.40;3.10;;;7.90;99.90;;;;;;4997230;28;20129;-62
2023/12/20 11:29:52;;;;;;;22.00;2.90;;;7.80;99.90;;;;;;4994946;28;20225;-63
2023/12/20 11:32:24;;;;;;;14.65;2.97;;;7.80;99.90;;;;;;5001554;28;20574;-62
2023/12/20 11:34:58;;;;;;;16.75;3.13;;;7.80;99.90;;;;;;4992631;28;20061;-61
2023/12/20 11:37:34;;;;;;;16.33;3.15;;;7.90;99.90;;;;;;4991713;28;20076;-62
2023/12/20 11:40:23;;;;;;;18.30;2.88;;;7.90;99.90;;;;;;4986152;28;20050;-62
2023/12/20 11:42:49;;;;;;;18.98;3.10;;;8.00;99.90;;;;;;4976525;28;20046;-62
2023/12/20 11:45:21;;;;;;;14.32;2.95;;;8.10;99.90;;;;;;4993154;28;20035;-63
2023/12/20 11:47:50;;;;;;;18.85;3.92;;;8.10;99.90;;;;;;4996185;28;20619;-63
2023/12/20 11:50:17;;;;;;;13.18;2.83;;;8.20;99.90;;;;;;4997207;28;20111;-62
2023/12/20 11:52:43;;;;;;;19.52;3.47;;;8.20;99.90;;;;;;4998055;28;20041;-62
2023/12/20 11:55:09;;;;;;;23.05;3.28;;;8.30;99.90;;;;;;4999650;28;20044;-63
2023/12/20 11:57:36;;;;;;;21.23;3.42;;;8.30;99.90;;;;;;5001582;28;20068;-63
2023/12/20 12:00:02;;;;;;;13.25;3.25;;;8.40;99.90;;;;;;4993234;28;20053;-62
2023/12/20 12:02:28;;;;;;;18.90;5.63;;;8.20;99.90;;;;;;4999613;28;20041;-62
2023/12/20 12:04:55;;;;;;;15.80;2.88;;;8.30;99.90;;;;;;4999494;28;20565;-63
2023/12/20 12:07:21;;;;;;;13.70;3.20;;;8.30;99.90;;;;;;4996787;28;20054;-62
2023/12/20 12:09:47;;;;;;;31.52;3.67;;;8.20;99.90;;;;;;5000975;28;20099;-62
2023/12/20 12:12:14;;;;;;;17.95;3.05;;;8.20;99.90;;;;;;5000837;28;20167;-63
2023/12/20 12:14:43;;;;;;;22.27;3.50;;;8.30;99.90;;;;;;5001994;28;20508;-62
2023/12/20 12:17:12;;;;;;;19.70;4.28;;;8.30;99.90;;;;;;5004008;28;20038;-63
2023/12/20 12:19:39;;;;;;;19.63;2.80;;;8.30;99.90;;;;;;5000979;28;20053;-62
2023/12/20 12:22:10;;;;;;;13.18;2.17;;;8.30;99.90;;;;;;5000857;28;20038;-62
2023/12/20 12:24:37;;;;;;;13.55;3.47;;;8.30;99.90;;;;;;4997311;28;20477;-63
2023/12/20 12:27:05;;;;;;;11.98;2.70;;;8.30;99.90;;;;;;5001483;28;20046;-63
2023/12/20 12:29:31;;;;;;;12.13;2.53;;;8.30;99.90;;;;;;5002804;28;20576;-63
2023/12/20 12:31:57;;;;;;;14.70;3.05;;;8.30;99.90;;;;;;4998746;28;20057;-64
2023/12/20 12:34:23;;;;;;;18.45;3.05;;;8.30;99.90;;;;;;5004195;28;20038;-63
2023/12/20 12:36:49;;;;;;;18.58;3.20;;;8.30;99.90;;;;;;5002666;28;20151;-63
2023/12/20 12:39:17;;;;;;;14.95;2.47;;;8.30;99.90;;;;;;4982314;28;20042;-63
2023/12/20 12:41:43;;;;;;;17.17;3.10;;;8.30;99.90;;;;;;5002444;28;20038;-64
2023/12/20 12:44:09;;;;;;;14.80;2.22;;;8.30;99.90;;;;;;5001429;28;20427;-63
2023/12/20 12:46:35;;;;;;;12.65;2.20;;;8.30;99.90;;;;;;5002559;28;20465;-63